Time;durP1;ratioP1;P1;durP2;ratioP2;P2;SDS_P1;SDS_P2;PMS_P1;PMS_P2;Temp;Humidity;BMP_temperature;BMP_pressure;BME280_temperature;BME280_humidity;BME280_pressure;Samples;Min_cycle;Max_cycle;Signal;HPM_P1;HPM_P2
2020/12/06 00:02:21;;;;;;;;;;;;;;;;;;5084530;28;20409;-83
2020/12/06 00:04:47;;;;;;;;;;;;;;;;;;5077129;28;20405;-82
2020/12/06 00:07:15;;;;;;;;;;;;;;;;;;5076167;28;20380;-82
2020/12/06 00:09:41;;;;;;;;;;;;;;;;;;5062416;28;20384;-83
2020/12/06 00:12:08;;;;;;;;;;;;;;;;;;5057758;28;20384;-83
2020/12/06 00:14:34;;;;;;;;;;;;;;;;;;5057335;28;20341;-82
2020/12/06 00:17:01;;;;;;;;;;;;;;;;;;5070859;28;20372;-81
2020/12/06 00:19:27;;;;;;;;;;;;;;;;;;5072336;28;20391;-81
2020/12/06 00:21:54;;;;;;;;;;;;;;;;;;5086358;28;20392;-83
2020/12/06 00:24:21;;;;;;;;;;;;;;;;;;5078674;28;20397;-83
2020/12/06 00:26:48;;;;;;;;;;;;;;;;;;5078999;28;20388;-82
2020/12/06 00:29:14;;;;;;;;;;;;;;;;;;5081375;28;20385;-80
2020/12/06 00:31:48;;;;;;;;;;;;;;;;;;5081734;28;20374;-84
2020/12/06 00:34:14;;;;;;;;;;;;;;;;;;5080359;28;20439;-86
2020/12/06 00:36:41;;;;;;;;;;;;;;;;;;5077943;28;20381;-85
2020/12/06 00:39:07;;;;;;;;;;;;;;;;;;5077652;28;20396;-86
2020/12/06 00:41:33;;;;;;;;;;;;;;;;;;5076807;28;20852;-86
2020/12/06 00:44:00;;;;;;;;;;;;;;;;;;5074982;28;20400;-85
2020/12/06 00:46:26;;;;;;;;;;;;;;;;;;5073459;28;20822;-86
2020/12/06 00:48:53;;;;;;;;;;;;;;;;;;5072610;28;20380;-86
2020/12/06 00:51:19;;;;;;;;;;;;;;;;;;5075532;28;21172;-87
2020/12/06 00:53:45;;;;;;;;;;;;;;;;;;5077209;28;20397;-86
2020/12/06 00:56:12;;;;;;;;;;;;;;;;;;5076662;28;20404;-87
2020/12/06 00:58:38;;;;;;;;;;;;;;;;;;5076562;28;20385;-86
2020/12/06 01:01:04;;;;;;;;;;;;;;;;;;5074456;28;20404;-86
2020/12/06 01:03:31;;;;;;;;;;;;;;;;;;5076227;28;20418;-86
2020/12/06 01:05:57;;;;;;;;;;;;;;;;;;5073958;28;20804;-86
2020/12/06 01:08:24;;;;;;;;;;;;;;;;;;5076355;28;20385;-85
2020/12/06 01:10:50;;;;;;;;;;;;;;;;;;5083000;28;20377;-85
2020/12/06 01:13:16;;;;;;;;;;;;;;;;;;5076296;28;20374;-84
2020/12/06 01:15:43;;;;;;;;;;;;;;;;;;5076652;28;20408;-85
2020/12/06 01:18:09;;;;;;;;;;;;;;;;;;5075093;28;20385;-83
2020/12/06 01:20:35;;;;;;;;;;;;;;;;;;5076357;28;20377;-83
2020/12/06 01:23:02;;;;;;;;;;;;;;;;;;5069569;28;20427;-82
2020/12/06 01:25:28;;;;;;;;;;;;;;;;;;5084553;28;20405;-83
2020/12/06 01:27:55;;;;;;;;;;;;;;;;;;5076573;28;20392;-82
2020/12/06 01:30:21;;;;;;;;;;;;;;;;;;5079596;28;20392;-82
2020/12/06 01:32:47;;;;;;;;;;;;;;;;;;5077251;28;20372;-83
2020/12/06 01:35:14;;;;;;;;;;;;;;;;;;5074628;28;20772;-81
2020/12/06 01:37:40;;;;;;;;;;;;;;;;;;5076952;28;20399;-83
2020/12/06 01:40:07;;;;;;;;;;;;;;;;;;5076495;28;20393;-85
2020/12/06 01:42:33;;;;;;;;;;;;;;;;;;5078573;28;20412;-86
2020/12/06 01:45:00;;;;;;;;;;;;;;;;;;5074495;28;20464;-84
2020/12/06 01:47:26;;;;;;;;;;;;;;;;;;5071947;28;20817;-82
2020/12/06 01:49:52;;;;;;;;;;;;;;;;;;5078609;28;20440;-83
2020/12/06 01:52:19;;;;;;;;;;;;;;;;;;5076354;28;20411;-84
2020/12/06 01:54:45;;;;;;;;;;;;;;;;;;5069692;28;20408;-84
2020/12/06 01:57:12;;;;;;;;;;;;;;;;;;5080606;28;20378;-82
2020/12/06 01:59:38;;;;;;;;;;;;;;;;;;5085281;28;20392;-83
2020/12/06 02:02:05;;;;;;;;;;;;;;;;;;5078363;28;20381;-84
2020/12/06 02:04:31;;;;;;;;;;;;;;;;;;5081079;28;20462;-85
2020/12/06 02:06:57;;;;;;;;;;;;;;;;;;5082262;28;20376;-85
2020/12/06 02:09:27;;;;;;;;;;;;;;;;;;5075229;28;20761;-83
2020/12/06 02:11:54;;;;;;;;;;;;;;;;;;5077119;28;20397;-85
2020/12/06 02:14:20;;;;;;;;;;;;;;;;;;5075152;28;20404;-83
2020/12/06 02:16:46;;;;;;;;;;;;;;;;;;5070500;28;20434;-82
2020/12/06 02:19:13;;;;;;;;;;;;;;;;;;5074578;28;20388;-84
2020/12/06 02:21:40;;;;;;;;;;;;;;;;;;5075199;28;20377;-84
2020/12/06 02:24:06;;;;;;;;;;;;;;;;;;5071361;28;20435;-83
2020/12/06 02:26:33;;;;;;;;;;;;;;;;;;5075463;28;20409;-83
2020/12/06 02:29:00;;;;;;;;;;;;;;;;;;5081821;28;20377;-83
2020/12/06 02:31:26;;;;;;;;;;;;;;;;;;5077149;28;20449;-84
2020/12/06 02:33:53;;;;;;;;;;;;;;;;;;5079157;28;20373;-84
2020/12/06 02:36:19;;;;;;;;;;;;;;;;;;5079492;28;20907;-83
2020/12/06 02:38:46;;;;;;;;;;;;;;;;;;5080559;28;20373;-86
2020/12/06 02:41:13;;;;;;;;;;;;;;;;;;5080536;28;20847;-84
2020/12/06 02:43:41;;;;;;;;;;;;;;;;;;5080830;28;20401;-84
2020/12/06 02:46:08;;;;;;;;;;;;;;;;;;5085091;28;20401;-83
2020/12/06 02:48:34;;;;;;;;;;;;;;;;;;5088857;28;20878;-87
2020/12/06 02:51:00;;;;;;;;;;;;;;;;;;5089354;28;20361;-83
2020/12/06 02:53:27;;;;;;;;;;;;;;;;;;5099370;28;20369;-87
2020/12/06 02:55:53;;;;;;;;;;;;;;;;;;5080605;28;20397;-86
2020/12/06 02:58:20;;;;;;;;;;;;;;;;;;5078254;28;20386;-87
2020/12/06 03:00:46;;;;;;;;;;;;;;;;;;5078425;28;20846;-83
2020/12/06 03:03:12;;;;;;;;;;;;;;;;;;5080399;28;20396;-86
2020/12/06 03:05:39;;;;;;;;;;;;;;;;;;5074004;28;20430;-86
2020/12/06 03:08:06;;;;;;;;;;;;;;;;;;5074852;28;20396;-85
2020/12/06 03:10:32;;;;;;;;;;;;;;;;;;5075090;28;20289;-87
2020/12/06 03:12:59;;;;;;;;;;;;;;;;;;5088331;28;20715;-87
2020/12/06 03:15:25;;;;;;;;;;;;;;;;;;5083746;28;20393;-87
2020/12/06 03:17:51;;;;;;;;;;;;;;;;;;5082633;28;20407;-86
2020/12/06 03:20:18;;;;;;;;;;;;;;;;;;5080312;28;20434;-86
2020/12/06 03:22:44;;;;;;;;;;;;;;;;;;5078666;28;20405;-87
2020/12/06 03:25:11;;;;;;;;;;;;;;;;;;5072259;28;20412;-86
2020/12/06 03:27:37;;;;;;;;;;;;;;;;;;5069819;28;20381;-86
2020/12/06 03:30:03;;;;;;;;;;;;;;;;;;5079641;28;20784;-87
2020/12/06 03:32:30;;;;;;;;;;;;;;;;;;5082900;28;20369;-88
2020/12/06 03:34:56;;;;;;;;;;;;;;;;;;5079044;28;20401;-87
2020/12/06 03:37:23;;;;;;;;;;;;;;;;;;5080079;28;20396;-87
2020/12/06 03:39:50;;;;;;;;;;;;;;;;;;5079341;28;20435;-86
2020/12/06 03:42:16;;;;;;;;;;;;;;;;;;5088225;28;20361;-85
2020/12/06 03:44:43;;;;;;;;;;;;;;;;;;5084223;28;20408;-87
2020/12/06 03:47:09;;;;;;;;;;;;;;;;;;5078021;28;20395;-86
2020/12/06 03:49:36;;;;;;;;;;;;;;;;;;5063130;28;20791;-88
2020/12/06 03:52:02;;;;;;;;;;;;;;;;;;5091819;28;20428;-86
2020/12/06 03:54:28;;;;;;;;;;;;;;;;;;5066332;28;20389;-86
2020/12/06 03:56:55;;;;;;;;;;;;;;;;;;5065998;28;20752;-87
2020/12/06 03:59:21;;;;;;;;;;;;;;;;;;5076711;28;20388;-87
2020/12/06 04:01:47;;;;;;;;;;;;;;;;;;5072611;28;20837;-86
2020/12/06 04:04:14;;;;;;;;;;;;;;;;;;5074998;28;20401;-86
2020/12/06 04:06:40;;;;;;;;;;;;;;;;;;5079076;28;20369;-87
2020/12/06 04:09:07;;;;;;;;;;;;;;;;;;5077227;28;20419;-87
2020/12/06 04:11:33;;;;;;;;;;;;;;;;;;5087847;28;20792;-86
2020/12/06 04:13:59;;;;;;;;;;;;;;;;;;5067921;28;20384;-85
2020/12/06 04:16:26;;;;;;;;;;;;;;;;;;5075140;28;20381;-88
2020/12/06 04:18:53;;;;;;;;;;;;;;;;;;5077754;28;20388;-87
2020/12/06 04:21:19;;;;;;;;;;;;;;;;;;5077170;28;20377;-87
2020/12/06 04:23:45;;;;;;;;;;;;;;;;;;5074081;28;20772;-86
2020/12/06 04:26:12;;;;;;;;;;;;;;;;;;5060707;28;20461;-86
2020/12/06 04:28:38;;;;;;;;;;;;;;;;;;5064643;28;20376;-86
2020/12/06 04:31:05;;;;;;;;;;;;;;;;;;5071628;28;20381;-86
2020/12/06 04:33:31;;;;;;;;;;;;;;;;;;5074596;28;20385;-87
2020/12/06 04:35:57;;;;;;;;;;;;;;;;;;5077537;28;20389;-87
2020/12/06 04:38:24;;;;;;;;;;;;;;;;;;5067143;28;20377;-86
2020/12/06 04:40:50;;;;;;;;;;;;;;;;;;5067979;28;20384;-86
2020/12/06 04:43:16;;;;;;;;;;;;;;;;;;5087415;28;20401;-85
2020/12/06 04:45:43;;;;;;;;;;;;;;;;;;5084783;28;20462;-86
2020/12/06 04:48:09;;;;;;;;;;;;;;;;;;5074723;28;20414;-85
2020/12/06 04:50:36;;;;;;;;;;;;;;;;;;5061891;28;20791;-86
2020/12/06 04:53:02;;;;;;;;;;;;;;;;;;5068966;28;20380;-86
2020/12/06 04:55:28;;;;;;;;;;;;;;;;;;5069518;28;20403;-85
2020/12/06 04:57:55;;;;;;;;;;;;;;;;;;5070908;28;20372;-85
2020/12/06 05:00:21;;;;;;;;;;;;;;;;;;5068715;28;20463;-86
2020/12/06 05:02:47;;;;;;;;;;;;;;;;;;5067090;28;20453;-85
2020/12/06 05:05:14;;;;;;;;;;;;;;;;;;5066439;28;20408;-85
2020/12/06 05:07:40;;;;;;;;;;;;;;;;;;5064290;28;20749;-87
2020/12/06 05:10:06;;;;;;;;;;;;;;;;;;5083414;28;20404;-86
2020/12/06 05:12:33;;;;;;;;;;;;;;;;;;5080546;28;20411;-85
2020/12/06 05:14:59;;;;;;;;;;;;;;;;;;5059501;28;20888;-86
2020/12/06 05:17:26;;;;;;;;;;;;;;;;;;5060324;28;20396;-84
2020/12/06 05:19:52;;;;;;;;;;;;;;;;;;5074247;28;20142;-85
2020/12/06 05:22:18;;;;;;;;;;;;;;;;;;5071504;28;20378;-85
2020/12/06 05:24:45;;;;;;;;;;;;;;;;;;5077128;28;20474;-85
2020/12/06 05:27:11;;;;;;;;;;;;;;;;;;5071638;28;20389;-85
2020/12/06 05:29:37;;;;;;;;;;;;;;;;;;5076533;28;20381;-85
2020/12/06 05:32:04;;;;;;;;;;;;;;;;;;5091160;28;20365;-83
2020/12/06 05:34:30;;;;;;;;;;;;;;;;;;5089923;28;20406;-86
2020/12/06 05:36:56;;;;;;;;;;;;;;;;;;5090150;28;20385;-86
2020/12/06 05:39:23;;;;;;;;;;;;;;;;;;5087917;28;20780;-86
2020/12/06 05:41:49;;;;;;;;;;;;;;;;;;5081585;28;20390;-86
2020/12/06 05:44:16;;;;;;;;;;;;;;;;;;5065523;28;20404;-85
2020/12/06 05:46:42;;;;;;;;;;;;;;;;;;5075290;28;20384;-86
2020/12/06 05:49:08;;;;;;;;;;;;;;;;;;5073325;28;20377;-87
2020/12/06 05:51:35;;;;;;;;;;;;;;;;;;5074596;28;20394;-86
2020/12/06 05:54:01;;;;;;;;;;;;;;;;;;5077913;28;20390;-87
2020/12/06 05:56:27;;;;;;;;;;;;;;;;;;5069716;28;20378;-87
2020/12/06 05:58:54;;;;;;;;;;;;;;;;;;5068553;28;20385;-87
2020/12/06 06:01:20;;;;;;;;;;;;;;;;;;5078158;28;21069;-86
2020/12/06 06:03:47;;;;;;;;;;;;;;;;;;5081874;28;20140;-87
2020/12/06 06:06:13;;;;;;;;;;;;;;;;;;5063770;28;20185;-87
2020/12/06 06:08:40;;;;;;;;;;;;;;;;;;5061830;28;20443;-87
2020/12/06 06:11:07;;;;;;;;;;;;;;;;;;5077854;28;20384;-87
2020/12/06 06:13:33;;;;;;;;;;;;;;;;;;5079461;28;20787;-87
2020/12/06 06:16:00;;;;;;;;;;;;;;;;;;5073251;28;20393;-87
2020/12/06 06:18:26;;;;;;;;;;;;;;;;;;5080205;28;20384;-87
2020/12/06 06:20:52;;;;;;;;;;;;;;;;;;5075771;28;20377;-89
2020/12/06 06:23:19;;;;;;;;;;;;;;;;;;5081845;28;20395;-87
2020/12/06 06:25:45;;;;;;;;;;;;;;;;;;5083378;28;20405;-87
2020/12/06 06:28:11;;;;;;;;;;;;;;;;;;5082818;28;20438;-87
2020/12/06 06:30:38;;;;;;;;;;;;;;;;;;5078234;28;20391;-86
2020/12/06 06:33:04;;;;;;;;;;;;;;;;;;5094596;28;20377;-86
2020/12/06 06:35:31;;;;;;;;;;;;;;;;;;5082006;28;20412;-87
2020/12/06 06:37:57;;;;;;;;;;;;;;;;;;5076208;28;20377;-88
2020/12/06 06:40:25;;;;;;;;;;;;;;;;;;5082827;28;20385;-87
2020/12/06 06:42:52;;;;;;;;;;;;;;;;;;5083488;28;20420;-86
2020/12/06 06:45:18;;;;;;;;;;;;;;;;;;5073102;28;20411;-87
2020/12/06 06:47:45;;;;;;;;;;;;;;;;;;5065472;28;20380;-87
2020/12/06 06:50:11;;;;;;;;;;;;;;;;;;5077687;28;20431;-87
2020/12/06 06:52:37;;;;;;;;;;;;;;;;;;5089040;28;20333;-87
2020/12/06 06:55:04;;;;;;;;;;;;;;;;;;5084146;28;20407;-87
2020/12/06 06:57:30;;;;;;;;;;;;;;;;;;5080580;28;20424;-87
2020/12/06 06:59:56;;;;;;;;;;;;;;;;;;5078863;28;20387;-87
2020/12/06 07:02:23;;;;;;;;;;;;;;;;;;5093759;28;20377;-87
2020/12/06 07:04:49;;;;;;;;;;;;;;;;;;5091583;28;20412;-86
2020/12/06 07:07:15;;;;;;;;;;;;;;;;;;5083510;28;20399;-87
2020/12/06 07:09:42;;;;;;;;;;;;;;;;;;5085569;28;20367;-87
2020/12/06 07:12:08;;;;;;;;;;;;;;;;;;5079620;28;20377;-87
2020/12/06 07:14:35;;;;;;;;;;;;;;;;;;5079720;28;20420;-87
2020/12/06 07:17:01;;;;;;;;;;;;;;;;;;5066390;28;20377;-87
2020/12/06 07:19:27;;;;;;;;;;;;;;;;;;5082537;28;20389;-87
2020/12/06 07:21:54;;;;;;;;;;;;;;;;;;5080244;28;20388;-87
2020/12/06 07:24:20;;;;;;;;;;;;;;;;;;5075727;28;20435;-88
2020/12/06 07:26:46;;;;;;;;;;;;;;;;;;5075187;28;20385;-85
2020/12/06 07:29:13;;;;;;;;;;;;;;;;;;5065553;28;20384;-86
2020/12/06 07:31:39;;;;;;;;;;;;;;;;;;5069328;28;20380;-86
2020/12/06 07:34:06;;;;;;;;;;;;;;;;;;5075845;28;20381;-86
2020/12/06 07:36:32;;;;;;;;;;;;;;;;;;5076070;28;20382;-86
2020/12/06 07:38:58;;;;;;;;;;;;;;;;;;5087365;28;20370;-84
2020/12/06 07:41:25;;;;;;;;;;;;;;;;;;5095491;28;20381;-85
2020/12/06 07:43:51;;;;;;;;;;;;;;;;;;5091123;28;20408;-84
2020/12/06 07:46:17;;;;;;;;;;;;;;;;;;5092737;28;20354;-86
2020/12/06 07:48:44;;;;;;;;;;;;;;;;;;5092877;28;20419;-85
2020/12/06 07:51:10;;;;;;;;;;;;;;;;;;5088575;28;20184;-84
2020/12/06 07:53:37;;;;;;;;;;;;;;;;;;5090865;28;19991;-85
2020/12/06 07:56:03;;;;;;;;;;;;;;;;;;5076164;28;20692;-84
2020/12/06 07:58:29;;;;;;;;;;;;;;;;;;5072187;28;20430;-84
2020/12/06 08:00:56;;;;;;;;;;;;;;;;;;5072181;28;20374;-83
2020/12/06 08:03:23;;;;;;;;;;;;;;;;;;5091335;28;20428;-83
2020/12/06 08:05:50;;;;;;;;;;;;;;;;;;5078623;28;20393;-84
2020/12/06 08:08:16;;;;;;;;;;;;;;;;;;5059895;28;20388;-84
2020/12/06 08:10:43;;;;;;;;;;;;;;;;;;5074040;28;20391;-85
2020/12/06 08:13:09;;;;;;;;;;;;;;;;;;5089215;28;20364;-86
2020/12/06 08:15:36;;;;;;;;;;;;;;;;;;5082339;28;20401;-85
2020/12/06 08:18:02;;;;;;;;;;;;;;;;;;5082693;28;20371;-85
2020/12/06 08:20:28;;;;;;;;;;;;;;;;;;5077840;28;20378;-86
2020/12/06 08:22:55;;;;;;;;;;;;;;;;;;5080006;28;20409;-84
2020/12/06 08:25:21;;;;;;;;;;;;;;;;;;5073720;28;20447;-85
2020/12/06 08:27:48;;;;;;;;;;;;;;;;;;5078705;28;20391;-85
2020/12/06 08:30:14;;;;;;;;;;;;;;;;;;5080865;28;20404;-84
2020/12/06 08:32:41;;;;;;;;;;;;;;;;;;5070070;28;20407;-85
2020/12/06 08:35:07;;;;;;;;;;;;;;;;;;5085131;28;20413;-84
2020/12/06 08:37:34;;;;;;;;;;;;;;;;;;5074204;28;20401;-83
2020/12/06 08:40:00;;;;;;;;;;;;;;;;;;5081537;28;20592;-84
2020/12/06 08:42:27;;;;;;;;;;;;;;;;;;5073204;28;20848;-83
2020/12/06 08:44:53;;;;;;;;;;;;;;;;;;5083807;28;20417;-83
2020/12/06 08:47:20;;;;;;;;;;;;;;;;;;5085679;28;20397;-84
2020/12/06 08:49:46;;;;;;;;;;;;;;;;;;5080976;28;20404;-84
2020/12/06 08:52:16;;;;;;;;;;;;;;;;;;5083525;28;20378;-84
2020/12/06 08:54:47;;;;;;;;;;;;;;;;;;5077974;28;20401;-85
2020/12/06 08:57:14;;;;;;;;;;;;;;;;;;5079033;28;20389;-84
2020/12/06 08:59:40;;;;;;;;;;;;;;;;;;5074344;28;20442;-84
2020/12/06 09:02:07;;;;;;;;;;;;;;;;;;5075519;28;20392;-83
2020/12/06 09:04:33;;;;;;;;;;;;;;;;;;5074771;28;20405;-86
2020/12/06 09:07:00;;;;;;;;;;;;;;;;;;5076768;28;20413;-86
2020/12/06 09:09:26;;;;;;;;;;;;;;;;;;5081617;28;20386;-85
2020/12/06 09:11:52;;;;;;;;;;;;;;;;;;5074879;28;20377;-84
2020/12/06 09:14:19;;;;;;;;;;;;;;;;;;5072756;28;20356;-85
2020/12/06 09:16:45;;;;;;;;;;;;;;;;;;5080846;28;20378;-85
2020/12/06 09:19:12;;;;;;;;;;;;;;;;;;5071882;28;20373;-84
2020/12/06 09:21:38;;;;;;;;;;;;;;;;;;5094491;28;20470;-84
2020/12/06 09:24:05;;;;;;;;;;;;;;;;;;5078675;28;20414;-85
2020/12/06 09:26:31;;;;;;;;;;;;;;;;;;5079580;28;20377;-84
2020/12/06 09:28:57;;;;;;;;;;;;;;;;;;5079288;28;20395;-86
2020/12/06 09:34:11;;;;;;;;;;;;;;;;;;5071527;28;20916;-85
2020/12/06 09:36:38;;;;;;;;;;;;;;;;;;5079641;28;20389;-85
2020/12/06 09:39:04;;;;;;;;;;;;;;;;;;5067827;28;20380;-85
2020/12/06 09:41:33;;;;;;;;;;;;;;;;;;5066524;28;20388;-85
2020/12/06 09:44:01;;;;;;;;;;;;;;;;;;5079143;28;20385;-85
2020/12/06 09:46:28;;;;;;;;;;;;;;;;;;5074212;22;20407;-85
2020/12/06 09:48:54;;;;;;;;;;;;;;;;;;5025546;28;20401;-85
2020/12/06 09:51:20;;;;;;;;;;;;;;;;;;5025084;28;20396;-85
2020/12/06 09:53:48;;;;;;;;;;;;;;;;;;5030915;28;20392;-84
2020/12/06 09:56:14;;;;;;;;;;;;;;;;;;5029316;28;20405;-84
2020/12/06 09:58:41;;;;;;;;;;;;;;;;;;5033586;28;20380;-84
2020/12/06 10:01:07;;;;;;;;;;;;;;;;;;5037447;28;20397;-84
2020/12/06 10:03:37;;;;;;;;;;;;;;;;;;5027326;28;20419;-84
2020/12/06 10:06:16;;;;;;;;;;;;;;;;;;5002048;28;20492;-86
2020/12/06 10:08:42;;;;;;;;;;;;;;;;;;5016517;28;20439;-85
2020/12/06 10:16:51;;;;;;;;;;;;;;;;;;5033018;28;20463;-84
2020/12/06 10:19:18;;;;;;;;;;;;;;;;;;5027304;28;20481;-85
2020/12/06 10:29:59;;;;;;;;;;;;;;;;;;5019149;28;20379;-85
2020/12/06 10:32:25;;;;;;;;;;;;;;;;;;5020126;28;20532;-85
2020/12/06 10:57:11;;;;;;;;;;;;;;;;;;5023196;28;20416;-84
2020/12/06 11:07:56;;;;;;;;;;;;;;;;;;4961011;28;20380;-85
2020/12/06 11:10:23;;;;;;;;;;;;;;;;;;4957727;28;20506;-85
2020/12/06 11:12:49;;;;;;;;;;;;;;;;;;4959117;28;20398;-84
2020/12/06 11:15:16;;;;;;;;;;;;;;;;;;4961764;28;20934;-83
2020/12/06 11:17:42;;;;;;;;;;;;;;;;;;4971984;28;20402;-82
2020/12/06 11:20:08;;;;;;;;;;;;;;;;;;4965917;29;20402;-85
2020/12/06 11:22:35;;;;;;;;;;;;;;;;;;4961616;28;20969;-84
2020/12/06 11:25:01;;;;;;;;;;;;;;;;;;4961688;29;20414;-84
2020/12/06 11:27:28;;;;;;;;;;;;;;;;;;4961912;28;20394;-84
2020/12/06 11:29:54;;;;;;;;;;;;;;;;;;4962232;29;20774;-84
2020/12/06 11:32:20;;;;;;;;;;;;;;;;;;4965287;29;20394;-84
2020/12/06 11:34:47;;;;;;;;;;;;;;;;;;4964162;28;20418;-85
2020/12/06 11:37:13;;;;;;;;;;;;;;;;;;4962312;28;20469;-85
2020/12/06 11:39:39;;;;;;;;;;;;;;;;;;4963681;28;20398;-85
2020/12/06 11:42:09;;;;;;;;;;;;;;;;;;4999901;28;20421;-86
2020/12/06 11:44:35;;;;;;;;;;;;;;;;;;5028707;28;20408;-86
2020/12/06 11:47:02;;;;;;;;;;;;;;;;;;5039844;28;20465;-87
2020/12/06 11:49:28;;;;;;;;;;;;;;;;;;5031082;28;20390;-84
2020/12/06 11:51:55;;;;;;;;;;;;;;;;;;5020883;28;20812;-85
2020/12/06 11:54:21;;;;;;;;;;;;;;;;;;5019253;28;20438;-87
2020/12/06 11:56:48;;;;;;;;;;;;;;;;;;5021447;28;20456;-84
2020/12/06 11:59:15;;;;;;;;;;;;;;;;;;5008517;28;20410;-83
2020/12/06 12:01:41;;;;;;;;;;;;;;;;;;5024284;28;20463;-84
2020/12/06 12:04:08;;;;;;;;;;;;;;;;;;5026038;28;20452;-82
2020/12/06 12:06:34;;;;;;;;;;;;;;;;;;5020335;28;20414;-85
2020/12/06 12:09:00;;;;;;;;;;;;;;;;;;5026827;28;20739;-85
2020/12/06 12:11:27;;;;;;;;;;;;;;;;;;5021885;28;20401;-84
2020/12/06 12:13:53;;;;;;;;;;;;;;;;;;5022736;28;20382;-84
2020/12/06 12:16:19;;;;;;;;;;;;;;;;;;5019645;28;20945;-84
2020/12/06 12:18:46;;;;;;;;;;;;;;;;;;5020885;28;20386;-84
2020/12/06 12:21:12;;;;;;;;;;;;;;;;;;5023208;28;20385;-84
2020/12/06 12:23:39;;;;;;;;;;;;;;;;;;5024930;28;20410;-84
2020/12/06 12:34:26;;;;;;;;;;;;;;;;;;5022432;28;20384;-84
2020/12/06 12:45:04;;;;;;;;;;;;;;;;;;5025297;28;20873;-83
2020/12/06 12:47:31;;;;;;;;;;;;;;;;;;5033838;28;20909;-83
2020/12/06 12:49:57;;;;;;;;;;;;;;;;;;5027239;28;20830;-83
2020/12/06 12:52:23;;;;;;;;;;;;;;;;;;5032948;28;20409;-84
2020/12/06 12:54:50;;;;;;;;;;;;;;;;;;5025611;28;20386;-83
2020/12/06 12:57:17;;;;;;;;;;;;;;;;;;5023535;28;21394;-83
2020/12/06 12:59:44;;;;;;;;;;;;;;;;;;5025227;28;20404;-85
2020/12/06 13:02:10;;;;;;;;;;;;;;;;;;5028684;28;20456;-84
2020/12/06 13:04:36;;;;;;;;;;;;;;;;;;5031826;28;20417;-84
2020/12/06 13:07:03;;;;;;;;;;;;;;;;;;5031312;28;20405;-85
2020/12/06 13:09:39;;;;;;;;;;;;;;;;;;5028641;28;20386;-88
2020/12/06 13:12:05;;;;;;;;;;;;;;;;;;5020650;28;20382;-87
2020/12/06 13:14:32;;;;;;;;;;;;;;;;;;5031884;28;20385;-88
2020/12/06 13:16:58;;;;;;;;;;;;;;;;;;5030892;28;20409;-87
2020/12/06 13:19:25;;;;;;;;;;;;;;;;;;5027287;28;20398;-84
2020/12/06 13:21:51;;;;;;;;;;;;;;;;;;5027636;28;20463;-85
2020/12/06 13:24:17;;;;;;;;;;;;;;;;;;5029799;28;20402;-84
2020/12/06 13:26:44;;;;;;;;;;;;;;;;;;5029475;28;20406;-84
2020/12/06 13:29:10;;;;;;;;;;;;;;;;;;5033810;28;20479;-85
2020/12/06 13:31:36;;;;;;;;;;;;;;;;;;5033544;28;20413;-85
2020/12/06 13:34:03;;;;;;;;;;;;;;;;;;5038993;28;20377;-80
2020/12/06 13:36:29;;;;;;;;;;;;;;;;;;5032752;28;20413;-84
2020/12/06 13:38:56;;;;;;;;;;;;;;;;;;5029212;28;20417;-84
2020/12/06 13:41:22;;;;;;;;;;;;;;;;;;5025057;28;20564;-85
2020/12/06 13:43:49;;;;;;;;;;;;;;;;;;5028464;28;20460;-84
2020/12/06 13:46:15;;;;;;;;;;;;;;;;;;5026491;28;20436;-84
2020/12/06 13:48:42;;;;;;;;;;;;;;;;;;5028548;28;20480;-82
2020/12/06 13:53:53;;;;;;;;;;;;;;;;;;5028417;28;20428;-84
2020/12/06 13:56:19;;;;;;;;;;;;;;;;;;5022407;28;20417;-86
2020/12/06 13:58:45;;;;;;;;;;;;;;;;;;5024804;28;20397;-82
2020/12/06 14:03:56;;;;;;;;;;;;;;;;;;5016641;28;20800;-84
2020/12/06 14:06:24;;;;;;;;;;;;;;;;;;5034888;28;20476;-83
2020/12/06 14:08:50;;;;;;;;;;;;;;;;;;5028949;28;20417;-82
2020/12/06 14:11:16;;;;;;;;;;;;;;;;;;5035873;28;20393;-86
2020/12/06 14:13:43;;;;;;;;;;;;;;;;;;5019547;28;20885;-87
2020/12/06 14:16:09;;;;;;;;;;;;;;;;;;5022467;28;20413;-84
2020/12/06 14:18:36;;;;;;;;;;;;;;;;;;5024627;28;20456;-86
2020/12/06 14:21:03;;;;;;;;;;;;;;;;;;5025633;28;20388;-85
2020/12/06 14:23:29;;;;;;;;;;;;;;;;;;5018309;28;20429;-85
2020/12/06 14:25:56;;;;;;;;;;;;;;;;;;5021271;28;20408;-86
2020/12/06 14:28:22;;;;;;;;;;;;;;;;;;5024604;28;20412;-86
2020/12/06 14:30:49;;;;;;;;;;;;;;;;;;5026561;28;20397;-84
2020/12/06 14:33:16;;;;;;;;;;;;;;;;;;5033425;28;20387;-86
2020/12/06 14:35:42;;;;;;;;;;;;;;;;;;5027175;28;20500;-87
2020/12/06 14:38:09;;;;;;;;;;;;;;;;;;5039037;28;20391;-86
2020/12/06 14:40:35;;;;;;;;;;;;;;;;;;5030409;28;20850;-86
2020/12/06 14:43:02;;;;;;;;;;;;;;;;;;5031410;28;20393;-85
2020/12/06 14:45:28;;;;;;;;;;;;;;;;;;5017280;28;20310;-86
2020/12/06 14:47:55;;;;;;;;;;;;;;;;;;5024150;28;20706;-83
2020/12/06 14:50:21;;;;;;;;;;;;;;;;;;5027618;28;20751;-84
2020/12/06 14:52:48;;;;;;;;;;;;;;;;;;5018920;28;20404;-86
2020/12/06 14:55:14;;;;;;;;;;;;;;;;;;5020677;28;20409;-85
2020/12/06 14:57:40;;;;;;;;;;;;;;;;;;5019498;28;20345;-85
2020/12/06 15:00:07;;;;;;;;;;;;;;;;;;5032547;28;20394;-85
2020/12/06 15:02:34;;;;;;;;;;;;;;;;;;5023573;28;20440;-83
2020/12/06 15:05:00;;;;;;;;;;;;;;;;;;5036339;28;20496;-85
2020/12/06 15:07:27;;;;;;;;;;;;;;;;;;5024859;28;20414;-85
2020/12/06 15:09:54;;;;;;;;;;;;;;;;;;5031476;28;20385;-84
2020/12/06 15:12:20;;;;;;;;;;;;;;;;;;5024418;28;20432;-85
2020/12/06 15:14:47;;;;;;;;;;;;;;;;;;5028879;28;20393;-85
2020/12/06 15:17:13;;;;;;;;;;;;;;;;;;5021709;28;20836;-83
2020/12/06 15:19:40;;;;;;;;;;;;;;;;;;5023769;28;20406;-85
2020/12/06 15:22:07;;;;;;;;;;;;;;;;;;5042522;28;20380;-85
2020/12/06 15:24:34;;;;;;;;;;;;;;;;;;5028768;28;20844;-87
2020/12/06 15:27:01;;;;;;;;;;;;;;;;;;5025739;28;20951;-84
2020/12/06 15:29:27;;;;;;;;;;;;;;;;;;5024946;28;20398;-86
2020/12/06 15:31:54;;;;;;;;;;;;;;;;;;5027652;28;20390;-84
2020/12/06 15:34:20;;;;;;;;;;;;;;;;;;5026793;28;20390;-84
2020/12/06 15:36:46;;;;;;;;;;;;;;;;;;5012194;28;20417;-84
2020/12/06 15:39:13;;;;;;;;;;;;;;;;;;5022563;28;20796;-83
2020/12/06 15:41:39;;;;;;;;;;;;;;;;;;5019893;28;20393;-82
2020/12/06 15:44:05;;;;;;;;;;;;;;;;;;5032712;28;20405;-82
2020/12/06 15:46:32;;;;;;;;;;;;;;;;;;5044680;28;20415;-83
2020/12/06 15:48:58;;;;;;;;;;;;;;;;;;5034777;28;20399;-83
2020/12/06 15:51:26;;;;;;;;;;;;;;;;;;5033865;28;20410;-82
2020/12/06 15:53:52;;;;;;;;;;;;;;;;;;5038397;28;20390;-82
2020/12/06 15:56:19;;;;;;;;;;;;;;;;;;5046179;28;20407;-84
2020/12/06 15:58:45;;;;;;;;;;;;;;;;;;5046279;28;20401;-83
2020/12/06 16:01:15;;;;;;;;;;;;;;;;;;5040344;28;20384;-83
2020/12/06 16:03:41;;;;;;;;;;;;;;;;;;5030453;28;20437;-84
2020/12/06 16:06:08;;;;;;;;;;;;;;;;;;5032867;28;20829;-83
2020/12/06 16:08:34;;;;;;;;;;;;;;;;;;5032442;28;20742;-83
2020/12/06 16:11:01;;;;;;;;;;;;;;;;;;5039296;28;20446;-84
2020/12/06 16:13:27;;;;;;;;;;;;;;;;;;5047135;28;20391;-84
2020/12/06 16:15:53;;;;;;;;;;;;;;;;;;5044014;28;20409;-84
2020/12/06 16:18:20;;;;;;;;;;;;;;;;;;5032579;28;20396;-83
2020/12/06 16:20:47;;;;;;;;;;;;;;;;;;5064970;22;20406;-85
2020/12/06 16:23:13;;;;;;;;;;;;;;;;;;5050689;28;20444;-84
2020/12/06 16:25:40;;;;;;;;;;;;;;;;;;5035305;28;20383;-84
2020/12/06 16:28:06;;;;;;;;;;;;;;;;;;5038934;28;20511;-86
2020/12/06 16:30:32;;;;;;;;;;;;;;;;;;5042193;28;20422;-85
2020/12/06 16:32:59;;;;;;;;;;;;;;;;;;5024082;28;20406;-84
2020/12/06 16:35:25;;;;;;;;;;;;;;;;;;5024158;28;20385;-87
2020/12/06 16:37:52;;;;;;;;;;;;;;;;;;5023324;28;20374;-85
2020/12/06 16:40:18;;;;;;;;;;;;;;;;;;5024447;28;20379;-85
2020/12/06 16:42:44;;;;;;;;;;;;;;;;;;5022149;28;20406;-86
2020/12/06 16:45:11;;;;;;;;;;;;;;;;;;5023339;28;20378;-86
2020/12/06 16:47:37;;;;;;;;;;;;;;;;;;5037868;28;20393;-84
2020/12/06 16:50:04;;;;;;;;;;;;;;;;;;5051256;28;20403;-84
2020/12/06 16:52:30;;;;;;;;;;;;;;;;;;5034676;28;20976;-86
2020/12/06 16:54:56;;;;;;;;;;;;;;;;;;5031452;28;20400;-84
2020/12/06 16:57:23;;;;;;;;;;;;;;;;;;5034911;28;20372;-86
2020/12/06 16:59:49;;;;;;;;;;;;;;;;;;5038422;28;20900;-86
2020/12/06 17:02:15;;;;;;;;;;;;;;;;;;5032927;28;20412;-86
2020/12/06 17:04:42;;;;;;;;;;;;;;;;;;5024990;28;20862;-85
2020/12/06 17:07:09;;;;;;;;;;;;;;;;;;5041589;28;20416;-86
2020/12/06 17:09:35;;;;;;;;;;;;;;;;;;5035151;28;20446;-84
2020/12/06 17:12:02;;;;;;;;;;;;;;;;;;5033568;28;20405;-83
2020/12/06 17:14:28;;;;;;;;;;;;;;;;;;5032396;28;20389;-84
2020/12/06 17:16:55;;;;;;;;;;;;;;;;;;5033262;28;20401;-85
2020/12/06 17:19:21;;;;;;;;;;;;;;;;;;5031394;28;20400;-84
2020/12/06 17:21:48;;;;;;;;;;;;;;;;;;5023928;28;20428;-83
2020/12/06 17:24:14;;;;;;;;;;;;;;;;;;5029833;28;20427;-85
2020/12/06 17:26:40;;;;;;;;;;;;;;;;;;5035772;28;20386;-85
2020/12/06 17:29:10;;;;;;;;;;;;;;;;;;5034995;28;20393;-84
2020/12/06 17:31:38;;;;;;;;;;;;;;;;;;5034140;28;20389;-83
2020/12/06 17:34:04;;;;;;;;;;;;;;;;;;5038211;28;20953;-83
2020/12/06 17:36:31;;;;;;;;;;;;;;;;;;5030917;28;20461;-82
2020/12/06 17:38:58;;;;;;;;;;;;;;;;;;5039556;28;20387;-83
2020/12/06 17:41:25;;;;;;;;;;;;;;;;;;5045667;28;20418;-84
2020/12/06 17:43:51;;;;;;;;;;;;;;;;;;5020786;28;20409;-83
2020/12/06 17:46:18;;;;;;;;;;;;;;;;;;5019713;28;20393;-84
2020/12/06 17:48:44;;;;;;;;;;;;;;;;;;5020310;28;20331;-85
2020/12/06 17:51:11;;;;;;;;;;;;;;;;;;5019511;28;20384;-84